createdAt,value
2022-10-01T00:02:12.445Z,82.88
2022-10-01T00:04:40.372Z,82.62
2022-10-01T00:07:15.359Z,82.38
2022-10-01T00:09:43.341Z,82.42
2022-10-01T00:12:11.328Z,82.82
2022-10-01T00:14:39.645Z,82.65
2022-10-01T00:17:08.029Z,82.83
2022-10-01T00:19:37.355Z,82.55
2022-10-01T00:22:05.257Z,82.93
2022-10-01T00:24:33.700Z,82.86
2022-10-01T00:27:01.588Z,82.91
2022-10-01T00:29:29.504Z,82.53
2022-10-01T00:31:58.124Z,82.14
2022-10-01T00:34:28.066Z,82.64
2022-10-01T00:36:57.649Z,82.35
2022-10-01T00:39:25.859Z,82.09
2022-10-01T00:41:53.669Z,82.80
2022-10-01T00:44:33.407Z,82.84
2022-10-01T00:47:04.817Z,82.97
2022-10-01T00:49:35.144Z,83.11
2022-10-01T00:52:07.169Z,82.64
2022-10-01T00:54:39.742Z,82.87
2022-10-01T00:57:08.702Z,82.97
2022-10-01T00:59:37.022Z,83.14
2022-10-01T01:02:05.477Z,82.83
2022-10-01T01:04:33.720Z,83.07
2022-10-01T01:07:04.441Z,83.01
2022-10-01T01:09:36.030Z,83.06
2022-10-01T01:12:10.992Z,83.24
2022-10-01T01:14:43.509Z,82.98
2022-10-01T01:17:15.674Z,83.25
2022-10-01T01:19:53.081Z,83.25
2022-10-01T01:22:24.509Z,82.98
2022-10-01T01:24:56.990Z,82.87
2022-10-01T01:27:37.748Z,82.87
2022-10-01T01:30:09.400Z,82.48
2022-10-01T01:32:46.465Z,82.53
2022-10-01T01:35:19.674Z,82.14
2022-10-01T01:37:52.474Z,82.17
2022-10-01T01:40:21.129Z,82.10
2022-10-01T01:42:50.483Z,81.76
2022-10-01T01:45:22.629Z,81.31
2022-10-01T01:47:52.045Z,80.80
2022-10-01T01:50:20.285Z,80.78
2022-10-01T01:52:48.119Z,80.54
2022-10-01T01:55:16.125Z,80.80
2022-10-01T01:57:45.057Z,80.21
2022-10-01T02:00:14.379Z,80.40
2022-10-01T02:02:46.560Z,79.95
2022-10-01T02:05:16.755Z,80.03
2022-10-01T02:07:54.535Z,79.50
2022-10-01T02:10:34.214Z,79.54
2022-10-01T02:13:13.600Z,78.80
2022-10-01T02:15:50.164Z,78.58
2022-10-01T02:18:27.685Z,78.09
2022-10-01T02:21:00.567Z,78.51
2022-10-01T02:23:31.400Z,77.95
2022-10-01T02:26:01.377Z,77.53
2022-10-01T02:28:31.426Z,76.99
2022-10-01T02:31:01.239Z,76.87
2022-10-01T02:33:32.531Z,76.39
2022-10-01T02:36:01.586Z,76.89
2022-10-01T02:38:30.147Z,76.75
2022-10-01T02:41:01.019Z,76.85
2022-10-01T02:43:32.649Z,76.49
2022-10-01T02:46:04.563Z,76.53
2022-10-01T02:48:34.368Z,75.72
2022-10-01T02:51:05.275Z,76.25
2022-10-01T02:53:35.880Z,75.75
2022-10-01T02:56:04.675Z,76.09
2022-10-01T02:58:31.729Z,76.17
2022-10-01T03:00:59.969Z,75.90
2022-10-01T03:03:28.208Z,76.19
2022-10-01T03:05:57.888Z,75.38
2022-10-01T03:08:25.756Z,75.11
2022-10-01T03:10:53.683Z,75.62
2022-10-01T03:13:23.509Z,76.03
2022-10-01T03:15:51.750Z,75.61
2022-10-01T03:18:19.653Z,75.60
2022-10-01T03:20:49.182Z,75.50
2022-10-01T03:23:18.525Z,75.08
2022-10-01T03:25:46.541Z,75.06
2022-10-01T03:28:14.435Z,74.86
2022-10-01T03:30:42.417Z,74.60
2022-10-01T03:33:11.875Z,73.74
2022-10-01T03:35:39.736Z,74.08
2022-10-01T03:38:08.484Z,74.55
2022-10-01T03:40:39.148Z,74.21
2022-10-01T03:43:07.225Z,73.98
2022-10-01T03:45:35.594Z,72.92
2022-10-01T03:48:03.732Z,72.86
2022-10-01T03:50:31.622Z,72.63
2022-10-01T03:53:00.324Z,72.62
2022-10-01T03:55:28.512Z,72.45
2022-10-01T03:57:58.674Z,72.40
2022-10-01T04:00:26.611Z,72.23
2022-10-01T04:02:58.608Z,71.17
2022-10-01T04:05:26.642Z,72.02
2022-10-01T04:07:54.508Z,71.21
2022-10-01T04:10:22.293Z,70.62
2022-10-01T04:12:50.164Z,71.56
2022-10-01T04:15:19.491Z,71.08
2022-10-01T04:17:47.711Z,71.19
2022-10-01T04:20:15.870Z,70.99
2022-10-01T04:22:44.648Z,70.47
2022-10-01T04:25:13.282Z,71.11
2022-10-01T04:27:41.596Z,71.16
2022-10-01T04:30:11.113Z,70.18
2022-10-01T04:32:40.402Z,70.93
2022-10-01T04:35:12.049Z,69.76
2022-10-01T04:37:39.908Z,70.21
2022-10-01T04:40:09.341Z,70.41
2022-10-01T04:42:37.178Z,70.58
2022-10-01T04:45:05.706Z,70.25
2022-10-01T04:47:37.510Z,70.25
2022-10-01T04:50:07.845Z,69.94
2022-10-01T04:52:35.716Z,69.16
2022-10-01T04:55:03.513Z,70.37
2022-10-01T04:57:31.425Z,70.56
2022-10-01T04:59:59.406Z,69.98
2022-10-01T05:02:27.566Z,69.67
2022-10-01T05:04:56.162Z,70.07
2022-10-01T05:07:25.534Z,69.96
2022-10-01T05:09:53.412Z,70.71
2022-10-01T05:12:24.565Z,70.61
2022-10-01T05:14:53.148Z,70.59
2022-10-01T05:17:21.178Z,70.24
2022-10-01T05:19:49.393Z,69.70
2022-10-01T05:22:18.081Z,70.27
2022-10-01T05:24:47.555Z,69.02
2022-10-01T05:27:15.642Z,69.55
2022-10-01T05:29:43.681Z,68.65
2022-10-01T05:32:12.417Z,69.43
2022-10-01T05:34:40.631Z,69.26
2022-10-01T05:37:08.559Z,68.87
2022-10-01T05:39:36.487Z,68.35
2022-10-01T05:42:06.629Z,68.27
2022-10-01T05:44:37.988Z,68.15
2022-10-01T05:47:06.911Z,67.83
2022-10-01T05:49:35.363Z,68.08
2022-10-01T05:52:03.449Z,67.81
2022-10-01T05:54:32.113Z,68.56
2022-10-01T05:57:00.207Z,68.03
2022-10-01T05:59:31.879Z,67.49
2022-10-01T06:02:00.245Z,68.36
2022-10-01T06:04:28.376Z,67.44
2022-10-01T06:06:56.933Z,66.86
2022-10-01T06:09:25.002Z,67.67
2022-10-01T06:11:52.921Z,66.93
2022-10-01T06:14:20.894Z,67.12
2022-10-01T06:16:54.455Z,67.47
2022-10-01T06:19:22.497Z,67.43
2022-10-01T06:21:50.899Z,66.98
2022-10-01T06:24:18.940Z,67.96
2022-10-01T06:26:48.589Z,69.36
2022-10-01T06:29:16.578Z,70.47
2022-10-01T06:31:44.675Z,70.83
2022-10-01T06:34:14.345Z,71.24
2022-10-01T06:36:42.355Z,72.70
2022-10-01T06:39:10.585Z,73.28
2022-10-01T06:41:38.612Z,73.76
2022-10-01T06:44:06.997Z,74.55
2022-10-01T06:46:35.366Z,74.17
2022-10-01T06:49:03.379Z,75.51
2022-10-01T06:51:51.737Z,75.37
2022-10-01T06:54:19.756Z,75.86
2022-10-01T06:56:47.738Z,76.60
2022-10-01T06:59:15.900Z,76.92
2022-10-01T07:01:43.941Z,76.95
2022-10-01T07:04:13.185Z,77.33
2022-10-01T07:06:42.550Z,78.04
2022-10-01T07:09:13.406Z,77.72
2022-10-01T07:11:43.802Z,78.78
2022-10-01T07:14:11.766Z,78.94
2022-10-01T07:16:41.162Z,78.49
2022-10-01T07:19:09.262Z,78.79
2022-10-01T07:21:37.516Z,78.43
2022-10-01T07:24:07.283Z,78.25
2022-10-01T07:26:35.250Z,78.75
2022-10-01T07:29:03.169Z,77.80
2022-10-01T07:31:31.157Z,78.75
2022-10-01T07:33:59.426Z,79.08
2022-10-01T07:36:29.145Z,79.43
2022-10-01T07:38:59.218Z,78.81
2022-10-01T07:41:28.544Z,79.97
2022-10-01T07:43:56.612Z,80.66
2022-10-01T07:46:24.730Z,81.28
2022-10-01T07:48:52.706Z,81.60
2022-10-01T07:51:20.735Z,81.42
2022-10-01T07:53:50.805Z,82.35
2022-10-01T07:56:18.767Z,82.49
2022-10-01T07:58:48.185Z,81.93
2022-10-01T08:01:17.151Z,82.11
2022-10-01T08:03:45.489Z,81.65
2022-10-01T08:06:14.037Z,82.28
2022-10-01T08:08:42.008Z,82.21
2022-10-01T08:11:10.449Z,82.19
2022-10-01T08:13:38.553Z,82.33
2022-10-01T08:16:09.849Z,83.35
2022-10-01T08:18:38.213Z,83.43
2022-10-01T08:21:06.265Z,83.67
2022-10-01T08:23:34.926Z,84.08
2022-10-01T08:26:08.335Z,84.02
2022-10-01T08:28:36.530Z,83.93
2022-10-01T08:31:10.042Z,83.82
2022-10-01T08:33:38.512Z,84.09
2022-10-01T08:36:08.617Z,84.65
2022-10-01T08:38:36.752Z,84.54
2022-10-01T08:41:14.148Z,84.54
2022-10-01T08:43:42.710Z,85.09
2022-10-01T08:46:15.486Z,85.37
2022-10-01T08:48:56.902Z,85.69
2022-10-01T08:51:30.067Z,85.63
2022-10-01T08:54:02.652Z,85.78
2022-10-01T08:56:32.595Z,85.98
2022-10-01T08:59:02.327Z,86.31
2022-10-01T09:01:32.951Z,86.85
2022-10-01T09:04:01.453Z,87.07
2022-10-01T09:06:29.904Z,86.94
2022-10-01T09:09:14.720Z,87.30
2022-10-01T09:11:51.015Z,87.07
2022-10-01T09:14:31.510Z,86.88
2022-10-01T09:17:06.945Z,87.44
2022-10-01T09:19:54.487Z,87.86
2022-10-01T09:22:31.119Z,88.00
2022-10-01T09:25:03.213Z,87.20
2022-10-01T09:27:31.222Z,87.57
2022-10-01T09:30:02.055Z,87.72
2022-10-01T09:32:33.346Z,88.35
2022-10-01T09:35:06.036Z,88.19
2022-10-01T09:37:40.669Z,88.17
2022-10-01T09:40:16.238Z,88.28
2022-10-01T09:42:44.818Z,88.20
2022-10-01T09:45:13.725Z,88.37
2022-10-01T09:47:44.933Z,88.69
2022-10-01T09:50:17.221Z,88.42
2022-10-01T09:52:46.369Z,88.75
2022-10-01T09:55:24.027Z,89.08
2022-10-01T09:57:55.089Z,88.57
2022-10-01T10:00:24.929Z,88.61
2022-10-01T10:02:56.334Z,89.17
2022-10-01T10:05:25.649Z,89.49
2022-10-01T10:07:55.722Z,88.95
2022-10-01T10:10:26.307Z,89.00
2022-10-01T10:13:02.056Z,89.33
2022-10-01T10:15:31.420Z,89.82
2022-10-01T10:18:06.805Z,89.85
2022-10-01T10:20:38.175Z,89.57
2022-10-01T10:23:10.061Z,90.27
2022-10-01T10:25:38.181Z,89.57
2022-10-01T10:28:07.008Z,89.59
2022-10-01T10:30:38.262Z,90.05
2022-10-01T10:33:08.418Z,89.97
2022-10-01T10:35:37.166Z,90.66
2022-10-01T10:38:17.242Z,90.29
2022-10-01T10:40:46.844Z,90.90
2022-10-01T10:43:20.956Z,91.14
2022-10-01T10:45:49.352Z,90.57
2022-10-01T10:48:19.743Z,90.71
2022-10-01T10:50:48.217Z,90.71
2022-10-01T10:53:22.395Z,90.13
2022-10-01T10:55:58.559Z,90.07
2022-10-01T10:58:28.019Z,89.90
2022-10-01T11:00:57.774Z,90.32
2022-10-01T11:03:30.071Z,90.19
2022-10-01T11:06:00.366Z,89.73
2022-10-01T11:08:29.190Z,89.75
2022-10-01T11:11:09.050Z,89.46
2022-10-01T11:13:52.129Z,89.41
2022-10-01T11:16:37.698Z,89.02
2022-10-01T11:19:21.257Z,89.28
2022-10-01T11:22:00.131Z,89.21
2022-10-01T11:25:09.268Z,89.82
2022-10-01T11:27:45.055Z,89.80
2022-10-01T11:30:16.481Z,89.11
2022-10-01T11:32:47.127Z,89.44
2022-10-01T11:35:26.232Z,89.79
2022-10-01T11:38:04.157Z,88.90
2022-10-01T11:40:36.487Z,89.44
2022-10-01T11:43:10.021Z,88.88
2022-10-01T11:45:41.775Z,88.06
2022-10-01T11:48:13.802Z,89.26
2022-10-01T11:50:44.982Z,89.18
2022-10-01T11:53:16.870Z,89.27
2022-10-01T11:56:04.909Z,88.63
2022-10-01T11:58:54.399Z,89.62
2022-10-01T12:01:36.612Z,89.43
2022-10-01T12:04:18.766Z,89.53
2022-10-01T12:06:54.785Z,89.64
2022-10-01T12:09:27.556Z,89.81
2022-10-01T12:12:01.495Z,90.26
2022-10-01T12:14:32.689Z,90.62
2022-10-01T12:17:07.670Z,90.84
2022-10-01T12:19:38.336Z,90.37
2022-10-01T12:22:12.890Z,90.09
2022-10-01T12:24:43.433Z,90.70
2022-10-01T12:27:30.941Z,89.49
2022-10-01T12:30:02.130Z,89.69
2022-10-01T12:32:37.713Z,89.57
2022-10-01T12:35:14.957Z,90.30
2022-10-01T12:37:58.612Z,89.62
2022-10-01T12:40:30.991Z,89.97
2022-10-01T12:43:20.853Z,88.18
2022-10-01T12:45:52.784Z,88.32
2022-10-01T12:48:26.983Z,88.90
2022-10-01T12:51:03.546Z,88.72
2022-10-01T12:53:37.736Z,88.27
2022-10-01T12:56:14.568Z,87.20
2022-10-01T12:59:06.902Z,87.05
2022-10-01T13:01:45.540Z,86.82
2022-10-01T13:04:31.155Z,87.15
2022-10-01T13:07:15.333Z,86.88
2022-10-01T13:09:49.070Z,86.25
2022-10-01T13:12:35.884Z,85.71
2022-10-01T13:15:04.114Z,86.08
2022-10-01T13:17:39.550Z,85.56
2022-10-01T13:20:11.922Z,85.72
2022-10-01T13:22:45.046Z,86.36
2022-10-01T13:25:25.903Z,85.76
2022-10-01T13:27:58.470Z,84.81
2022-10-01T13:30:28.028Z,85.32
2022-10-01T13:32:58.573Z,85.82
2022-10-01T13:35:32.868Z,85.00
2022-10-01T13:38:02.629Z,85.59
2022-10-01T13:40:33.345Z,85.01
2022-10-01T13:43:03.649Z,83.91
2022-10-01T13:45:34.342Z,84.02
2022-10-01T13:48:16.625Z,83.93
2022-10-01T13:50:56.712Z,83.65
2022-10-01T13:53:26.408Z,83.52
2022-10-01T13:55:56.948Z,82.98
2022-10-01T13:58:33.476Z,82.92
2022-10-01T14:01:03.075Z,81.70
2022-10-01T14:03:45.638Z,81.90
2022-10-01T14:06:19.586Z,81.57
2022-10-01T14:08:52.790Z,81.05
2022-10-01T14:11:43.662Z,81.14
2022-10-01T14:14:30.941Z,81.11
2022-10-01T14:16:59.853Z,80.37
2022-10-01T14:19:29.098Z,80.09
2022-10-01T14:22:04.927Z,80.35
2022-10-01T14:24:40.757Z,80.32
2022-10-01T14:27:16.249Z,79.75
2022-10-01T14:29:52.869Z,79.09
2022-10-01T14:32:28.010Z,79.38
2022-10-01T14:35:04.381Z,79.81
2022-10-01T14:37:32.265Z,80.39
2022-10-01T14:40:04.141Z,79.75
2022-10-01T14:42:33.594Z,80.01
2022-10-01T14:45:01.481Z,79.16
2022-10-01T14:47:35.617Z,78.42
2022-10-01T14:50:15.203Z,77.62
2022-10-01T14:52:48.118Z,78.35
2022-10-01T14:55:19.417Z,77.64
2022-10-01T14:57:52.333Z,77.79
2022-10-01T15:00:22.292Z,77.98
2022-10-01T15:02:51.910Z,78.05
2022-10-01T15:05:26.754Z,76.40
2022-10-01T15:07:55.025Z,77.78
2022-10-01T15:10:27.109Z,77.33
2022-10-01T15:12:57.053Z,76.75
2022-10-01T15:15:29.394Z,76.91
2022-10-01T15:17:57.238Z,77.01
2022-10-01T15:20:25.209Z,76.69
2022-10-01T15:22:59.020Z,76.17
2022-10-01T15:25:30.781Z,75.90
2022-10-01T15:28:00.204Z,76.33
2022-10-01T15:30:28.916Z,75.18
2022-10-01T15:32:57.577Z,75.04
2022-10-01T15:35:26.556Z,74.65
2022-10-01T15:37:55.259Z,75.53
2022-10-01T15:40:27.398Z,74.49
2022-10-01T15:43:21.418Z,74.00
2022-10-01T15:46:16.975Z,74.49
2022-10-01T15:48:45.749Z,75.23
2022-10-01T15:51:21.752Z,74.47
2022-10-01T15:53:49.789Z,74.89
2022-10-01T15:56:19.234Z,74.83
2022-10-01T15:58:51.944Z,75.54
2022-10-01T16:01:22.653Z,74.87
2022-10-01T16:03:54.833Z,74.41
2022-10-01T16:06:25.936Z,74.62
2022-10-01T16:09:03.109Z,74.43
2022-10-01T16:11:35.917Z,75.25
2022-10-01T16:14:23.407Z,75.04
2022-10-01T16:16:51.657Z,75.30
2022-10-01T16:19:24.786Z,75.57
2022-10-01T16:22:16.086Z,74.96
2022-10-01T16:24:45.808Z,75.00
2022-10-01T16:27:15.250Z,74.49
2022-10-01T16:29:44.537Z,74.42
2022-10-01T16:32:14.918Z,74.20
2022-10-01T16:34:42.929Z,74.77
2022-10-01T16:37:10.713Z,75.46
2022-10-01T16:39:38.772Z,74.27
2022-10-01T16:42:23.365Z,74.67
2022-10-01T16:44:53.480Z,74.67
2022-10-01T16:47:22.505Z,75.22
2022-10-01T16:49:52.614Z,75.58
2022-10-01T16:52:20.419Z,75.66
2022-10-01T16:54:48.710Z,76.19
2022-10-01T16:57:17.102Z,75.31
2022-10-01T16:59:44.996Z,75.92
2022-10-01T17:02:15.456Z,75.98
2022-10-01T17:04:43.484Z,75.45
2022-10-01T17:07:11.321Z,75.90
2022-10-01T17:09:39.092Z,76.43
2022-10-01T17:12:09.554Z,76.56
2022-10-01T17:14:37.759Z,77.22
2022-10-01T17:17:05.504Z,77.79
2022-10-01T17:19:36.078Z,77.81
2022-10-01T17:22:03.854Z,77.84
2022-10-01T17:24:32.861Z,78.23
2022-10-01T17:27:00.841Z,78.83
2022-10-01T17:29:30.866Z,78.70
2022-10-01T17:31:59.240Z,79.12
2022-10-01T17:34:27.303Z,79.34
2022-10-01T17:36:58.969Z,79.28
2022-10-01T17:39:26.855Z,79.22
2022-10-01T17:41:54.894Z,79.68
2022-10-01T17:44:23.010Z,79.20
2022-10-01T17:46:51.105Z,79.52
2022-10-01T17:49:19.015Z,79.77
2022-10-01T17:51:48.111Z,80.21
2022-10-01T17:54:17.707Z,79.52
2022-10-01T17:56:45.913Z,79.81
2022-10-01T17:59:14.301Z,79.63
2022-10-01T18:01:42.163Z,78.92
2022-10-01T18:04:12.352Z,79.00
2022-10-01T18:06:40.609Z,79.96
2022-10-01T18:09:10.982Z,78.74
2022-10-01T18:11:40.613Z,79.50
2022-10-01T18:14:08.817Z,79.88
2022-10-01T18:16:37.017Z,80.72
2022-10-01T18:21:54.907Z,81.23
2022-10-01T18:24:22.692Z,82.26
2022-10-01T18:26:52.012Z,82.13
2022-10-01T18:29:21.226Z,82.22
2022-10-01T18:31:53.504Z,82.63
2022-10-01T18:34:26.448Z,83.02
2022-10-01T18:36:59.624Z,82.64
2022-10-01T18:39:30.747Z,83.87
2022-10-01T18:42:05.532Z,83.15
2022-10-01T18:44:33.770Z,83.00
2022-10-01T18:47:15.435Z,83.24
2022-10-01T18:50:10.480Z,83.64
2022-10-01T18:52:46.848Z,83.82
2022-10-01T18:55:30.944Z,83.95
2022-10-01T18:58:13.796Z,84.29
2022-10-01T19:00:45.762Z,83.87
2022-10-01T19:03:23.683Z,83.80
2022-10-01T19:06:19.267Z,84.02
2022-10-01T19:08:58.172Z,84.14
2022-10-01T19:11:33.305Z,84.24
2022-10-01T19:14:18.186Z,84.33
2022-10-01T19:16:50.417Z,84.77
2022-10-01T19:19:28.446Z,84.91
2022-10-01T19:22:00.880Z,84.72
2022-10-01T19:24:42.172Z,84.51
2022-10-01T19:27:18.133Z,85.07
2022-10-01T19:30:05.388Z,85.20
2022-10-01T19:32:41.022Z,85.14
2022-10-01T19:35:18.635Z,85.30
2022-10-01T19:37:49.137Z,85.08
2022-10-01T19:40:22.828Z,85.47
2022-10-01T19:42:56.734Z,85.06
2022-10-01T19:45:27.902Z,84.94
2022-10-01T19:48:02.889Z,84.77
2022-10-01T19:50:34.911Z,85.13
2022-10-01T19:53:04.701Z,85.28
2022-10-01T19:55:38.905Z,84.08
2022-10-01T19:58:16.779Z,85.18
2022-10-01T20:00:48.141Z,85.14
2022-10-01T20:03:21.471Z,84.94
2022-10-01T20:05:54.056Z,84.08
2022-10-01T20:08:33.129Z,84.35
2022-10-01T20:11:05.994Z,83.85
2022-10-01T20:14:02.238Z,84.43
2022-10-01T20:16:36.355Z,84.32
2022-10-01T20:19:11.142Z,84.33
2022-10-01T20:21:47.254Z,83.92
2022-10-01T20:24:28.986Z,84.05
2022-10-01T20:27:03.439Z,84.69
2022-10-01T20:29:43.494Z,84.48
2022-10-01T20:32:17.359Z,84.52
2022-10-01T20:34:52.972Z,84.51
2022-10-01T20:37:35.076Z,84.57
2022-10-01T20:40:07.095Z,85.12
2022-10-01T20:42:40.058Z,85.67
2022-10-01T20:45:18.206Z,86.21
2022-10-01T20:47:51.484Z,86.83
2022-10-01T20:50:21.572Z,87.73
2022-10-01T20:53:04.816Z,87.56
2022-10-01T20:55:38.910Z,87.84
2022-10-01T20:58:13.094Z,88.64
2022-10-01T21:00:42.815Z,88.81
2022-10-01T21:03:19.177Z,89.05
2022-10-01T21:05:50.943Z,89.08
2022-10-01T21:08:40.394Z,88.89
2022-10-01T21:11:12.943Z,89.47
2022-10-01T21:13:46.001Z,89.73
2022-10-01T21:16:26.985Z,89.72
2022-10-01T21:19:03.166Z,89.45
2022-10-01T21:21:38.630Z,89.63
2022-10-01T21:24:18.061Z,89.75
2022-10-01T21:26:53.981Z,89.44
2022-10-01T21:29:34.083Z,89.47
2022-10-01T21:32:12.568Z,89.61
2022-10-01T21:34:51.322Z,89.97
2022-10-01T21:37:24.660Z,89.80
2022-10-01T21:39:58.520Z,90.39
2022-10-01T21:42:35.030Z,90.45
2022-10-01T21:45:31.141Z,90.65
2022-10-01T21:48:17.054Z,91.43
2022-10-01T21:50:51.921Z,91.67
2022-10-01T21:53:55.483Z,91.67
2022-10-01T21:56:51.096Z,91.72
2022-10-01T21:59:31.072Z,91.95
2022-10-01T22:02:07.244Z,91.40
2022-10-01T22:04:40.373Z,91.52
2022-10-01T22:07:17.928Z,91.27
2022-10-01T22:09:53.539Z,91.90
2022-10-01T22:12:23.141Z,91.46
2022-10-01T22:14:51.776Z,91.44
2022-10-01T22:17:23.405Z,91.43
2022-10-01T22:19:55.446Z,91.17
2022-10-01T22:22:30.948Z,91.29
2022-10-01T22:25:00.689Z,91.43
2022-10-01T22:27:33.400Z,91.60
2022-10-01T22:30:07.188Z,91.70
2022-10-01T22:32:41.864Z,91.65
2022-10-01T22:35:15.760Z,91.76
2022-10-01T22:37:49.966Z,91.71
2022-10-01T22:40:22.851Z,91.94
2022-10-01T22:42:57.820Z,92.42
2022-10-01T22:45:33.888Z,91.93
2022-10-01T22:48:10.990Z,92.03
2022-10-01T22:50:49.454Z,92.16
2022-10-01T22:53:27.822Z,92.85
2022-10-01T22:55:57.305Z,92.87
2022-10-01T22:58:32.302Z,92.72
2022-10-01T23:01:06.038Z,92.52
2022-10-01T23:03:45.670Z,92.55
2022-10-01T23:06:20.536Z,92.23
2022-10-01T23:08:53.954Z,92.81
2022-10-01T23:11:24.943Z,92.79
2022-10-01T23:13:59.506Z,92.81
2022-10-01T23:16:35.043Z,93.00
2022-10-01T23:19:12.358Z,92.76
2022-10-01T23:21:44.878Z,92.42
2022-10-01T23:24:24.000Z,93.02
2022-10-01T23:26:59.428Z,92.67
2022-10-01T23:29:47.042Z,92.41
2022-10-01T23:32:23.647Z,93.06
2022-10-01T23:34:55.658Z,92.76
2022-10-01T23:37:51.444Z,93.18
2022-10-01T23:40:22.862Z,93.18
2022-10-01T23:42:54.703Z,93.18
2022-10-01T23:45:26.646Z,92.87
2022-10-01T23:48:01.435Z,93.44
2022-10-01T23:50:33.667Z,92.86
2022-10-01T23:53:06.612Z,92.56
2022-10-01T23:56:00.183Z,92.46
2022-10-01T23:58:30.261Z,92.10
